Latest Coastal Weather Observations for Cape Wessel

IDD60701

Issued at 1:51 pm CST Thursday 23 March 2017 (issued every 10 minutes, with the page automatically refreshed every 10 minutes)

About coastal observations | Map of coastal stations | Coastal observations for NT | Marine services | Other Formats
Station Details ID: 200786 Name: CAPE WESSEL Lat: -11.00 Lon: 136.76 Height: 18.0 m
Data from the previous 72 hours. | See also: Recent months at Cape Wessel
Date/Time
CST
Temp
°C
Wind Pressure Rain since
9am
mm
Weather Cloud Vis
km
Sea
Height
m
Swell
Dir  Spd
kts
Gust
kts
hPa Trend Height
m
Period
s
Dir
23/01:30pm 31.8 N 7 9 1009.1 - 0.2 - - - - - - -
23/01:00pm 31.1 N 7 9 1009.2 - 0.2 - - - - - - -
23/12:30pm 31.5 N 7 9 1009.6 - 0.2 - - - - - - -
23/12:00pm 31.5 N 6 8 1010.0 - 0.2 - - - - - - -
23/11:30am 31.4 N 7 8 1010.3 - 0.2 - - - - - - -
23/11:00am 31.4 N 7 10 1011.0 - 0.2 - - - - - - -
23/10:30am 30.9 NW 5 6 1011.3 - 0.2 - - - - - - -
23/10:00am 30.0 NNE 5 6 1011.2 - 0.0 - - - - - - -
23/09:30am 30.7 NE 4 6 1011.1 - 0.0 - - - - - - -
23/09:00am 29.5 WNW 5 7 1011.0 - 5.0 - - - - - - -
23/08:30am 29.6 NW 5 6 1011.0 - 5.0 - - - - - - -
23/08:00am 28.2 NNW 4 6 1010.7 - 5.0 - - - - - - -
23/07:30am 27.6 N 4 5 1010.3 - 5.0 - - - - - - -
23/07:00am 26.8 NNW 5 6 1009.9 - 5.0 - - - - - - -
23/06:30am 26.2 N 6 7 1009.7 - 5.0 - - - - - - -
23/06:00am 26.0 N 6 7 1009.4 - 5.0 - - - - - - -
23/05:30am 26.3 NNW 7 9 1009.0 - 5.0 - - - - - - -
23/05:00am 26.4 NNW 9 11 1008.7 - 5.0 - - - - - - -
23/04:30am 26.5 NW 9 11 1008.7 - 4.8 - - - - - - -
23/04:00am 27.2 NW 9 13 1008.6 - 4.8 - - - - - - -
23/03:30am 27.1 NW 9 11 1008.6 - 4.8 - - - - - - -
23/03:00am 27.1 WNW 10 13 1008.6 - 4.8 - - - - - - -
23/02:30am 27.5 WNW 12 15 1008.7 - 4.8 - - - - - - -
23/02:00am 27.6 NNW 7 9 1009.0 - 4.8 - - - - - - -
23/01:30am 27.3 NNW 6 9 1009.3 - 4.8 - - - - - - -
23/01:00am 27.2 NNW 5 6 1009.8 - 4.8 - - - - - - -
23/12:30am 27.0 N 4 5 1010.0 - 4.8 - - - - - - -
23/12:00am 27.2 N 4 6 1010.2 - 4.8 - - - - - - -
 
Date/Time
CST
Temp
°C
Wind Pressure Rain since
9am
mm
Weather Cloud Vis
km
Sea
Height
m
Swell
Dir  Spd
kts
Gust
kts
hPa Trend Height
m
Period
s
Dir
22/11:30pm 27.4 N 5 6 1010.2 - 4.8 - - - - - - -
22/11:00pm 27.4 N 4 6 1010.4 - 4.8 - - - - - - -
22/10:30pm 27.3 NNE 2 4 1010.3 - 4.8 - - - - - - -
22/10:00pm 27.6 NNE 4 5 1010.5 - 4.8 - - - - - - -
22/09:30pm 27.7 N 4 5 1010.2 - 4.8 - - - - - - -
22/09:00pm 28.0 NW 6 7 1009.6 - 4.8 - - - - - - -
22/08:30pm 27.9 NW 6 7 1009.2 - 4.8 - - - - - - -
22/08:00pm 27.9 NW 5 6 1008.7 - 4.8 - - - - - - -
22/07:30pm 28.1 WNW 6 8 1008.3 - 4.8 - - - - - - -
22/07:00pm 28.2 WNW 7 8 1008.2 - 4.8 - - - - - - -
22/06:30pm 28.5 WNW 7 9 1007.7 - 4.8 - - - - - - -
22/06:00pm 29.8 W 8 10 1007.5 - 4.8 - - - - - - -
22/05:30pm 30.5 WNW 8 10 1007.4 - 4.8 - - - - - - -
22/05:00pm 31.0 W 8 10 1007.3 - 4.8 - - - - - - -
22/04:30pm 31.1 WNW 8 10 1007.2 - 4.8 - - - - - - -
22/04:00pm 30.7 WNW 9 11 1007.3 - 4.8 - - - - - - -
22/03:30pm 30.2 NW 9 11 1007.4 - 4.8 - - - - - - -
22/03:00pm 27.3 NNW 14 20 1007.9 - 3.6 Rain - - - - - -
22/02:30pm 31.8 NNW 10 12 1007.9 - 0.0 - - - - - - -
22/02:00pm 32.3 NW 9 11 1008.3 - 0.0 - - - - - - -
22/01:30pm 32.4 NNW 8 10 1008.7 - 0.0 - - - - - - -
22/01:00pm 31.8 NNW 8 10 1009.3 - 0.0 - - - - - - -
22/12:30pm 32.3 NW 7 9 1009.7 - 0.0 - - - - - - -
22/12:00pm 32.5 NW 7 9 1010.2 - 0.0 - - - - - - -
22/11:30am 31.9 NW 7 9 1010.4 - 0.0 - - - - - - -
22/11:00am 31.5 NNW 8 10 1010.6 - 0.0 - - - - - - -
22/10:30am 31.4 NNW 8 10 1010.8 - 0.0 - - - - - - -
22/10:00am 31.0 NNW 9 11 1011.1 - 0.0 - - - - - - -
22/09:30am 30.9 NNW 8 10 1011.4 - 0.0 - - - - - - -
22/09:00am 30.4 NNW 7 8 1010.9 - 9.0 - - - - - - -
22/08:30am 29.9 NW 7 8 1010.5 - 9.0 - - - - - - -
22/08:00am 29.2 NW 5 7 1010.2 - 9.0 - - - - - - -
22/07:30am 28.2 NW 5 7 1010.1 - 9.0 - - - - - - -
22/07:00am 26.7 WNW 5 9 1009.9 - 9.0 - - - - - - -
22/06:30am 26.8 W 7 9 1009.6 - 9.0 - - - - - - -
22/06:00am 26.9 NNW 5 7 1009.3 - 9.0 - - - - - - -
22/05:30am 26.7 NNW 5 6 1008.9 - 9.0 - - - - - - -
22/05:00am 26.7 NW 5 6 1008.6 - 9.0 - - - - - - -
22/04:30am 26.9 NW 5 7 1008.6 - 9.0 - - - - - - -
22/04:00am 27.0 NW 5 6 1008.7 - 9.0 - - - - - - -
22/03:30am 27.4 WNW 7 8 1008.7 - 9.0 - - - - - - -
22/03:00am 27.3 W 6 7 1008.8 - 9.0 - - - - - - -
22/02:30am 27.1 W 6 8 1008.8 - 9.0 - - - - - - -
22/02:00am 27.2 W 7 8 1009.1 - 9.0 - - - - - - -
22/01:30am 27.2 W 7 8 1009.4 - 9.0 - - - - - - -
22/01:00am 26.8 W 7 8 1009.6 - 9.0 - - - - - - -
22/12:30am 26.0 WSW 5 6 1009.6 - 9.0 - - - - - - -
22/12:00am 26.2 SW 5 6 1010.0 - 9.0 - - - - - - -
 
Date/Time
CST
Temp
°C
Wind Pressure Rain since
9am
mm
Weather Cloud Vis
km
Sea
Height
m
Swell
Dir  Spd
kts
Gust
kts
hPa Trend Height
m
Period
s
Dir
21/11:30pm 26.7 SW 5 6 1010.3 - 9.0 - - - - - - -
21/11:00pm 27.0 WSW 7 9 1010.4 - 9.0 - - - - - - -
21/10:30pm 27.3 W 7 9 1010.3 - 9.0 - - - - - - -
21/10:00pm 27.4 W 9 11 1010.5 - 9.0 - - - - - - -
21/09:30pm 27.3 W 10 12 1010.1 - 9.0 - - - - - - -
21/09:00pm 27.6 W 12 15 1009.6 - 9.0 - - - - - - -
21/08:30pm 27.7 WNW 10 12 1009.1 - 9.0 - - - - - - -
21/08:00pm 28.2 WNW 13 16 1008.8 - 9.0 - - - - - - -
21/07:30pm 27.9 NW 12 14 1008.6 - 9.0 - - - - - - -
21/07:00pm 27.9 WNW 10 13 1008.3 - 9.0 - - - - - - -
21/06:30pm 27.8 WNW 8 10 1008.2 - 9.0 - - - - - - -
21/06:00pm 27.8 WNW 10 12 1008.0 - 9.0 - - - - - - -
21/05:30pm 28.1 NW 10 13 1007.7 - 9.0 - - - - - - -
21/05:00pm 28.1 NNW 11 15 1007.6 - 9.0 - - - - - - -
21/04:30pm 28.1 NW 13 16 1007.4 - 9.0 - - - - - - -
21/04:00pm 28.6 NNW 9 11 1007.4 - 9.0 - - - - - - -
21/03:30pm 28.2 NNE 8 10 1007.3 - 9.0 - - - - - - -
21/03:00pm 27.8 NE 9 13 1007.4 - 9.0 Rain - - - - - -
21/02:30pm 30.6 NNW 8 10 1007.7 - 8.8 - - - - - - -
21/02:00pm 32.0 NNW 7 10 1007.8 - 8.8 - - - - - - -
21/01:30pm 32.2 NW 8 10 1008.3 - 8.8 - - - - - - -
21/01:00pm 31.8 NW 10 11 1008.5 - 8.8 - - - - - - -
21/12:30pm 31.9 NNW 6 8 1008.9 - 8.8 - - - - - - -
21/12:00pm 31.6 NNW 6 8 1009.6 - 8.8 - - - - - - -
21/11:30am 29.4 NNW 7 8 1010.0 - 8.8 - - - - - - -
21/11:00am 29.1 NNE 4 7 1010.4 - 8.8 - - - - - - -
21/10:30am 28.3 NNE 4 6 1010.6 - 8.8 - - - - - - -
21/10:00am 27.2 ENE 3 6 1010.7 - 8.6 - - - - - - -
21/09:30am 31.0 N 7 10 1010.7 - 0.0 - - - - - - -
21/09:00am 30.1 NNW 10 14 1010.7 - 2.8 - - - - - - -
21/08:30am 29.1 NNW 8 10 1010.4 - 2.8 - - - - - - -
21/08:00am 28.5 NNW 8 11 1010.3 - 2.8 - - - - - - -
21/07:30am 28.2 NW 9 11 1009.8 - 2.8 - - - - - - -
21/07:00am 28.1 NW 10 14 1009.4 - 2.8 - - - - - - -
21/06:30am 28.0 NW 10 12 1009.1 - 2.8 - - - - - - -
21/06:00am 28.0 NW 12 16 1008.7 - 2.8 - - - - - - -
21/05:30am 28.0 NW 13 16 1008.3 - 2.8 - - - - - - -
21/05:00am 28.0 NW 15 17 1008.0 - 2.8 - - - - - - -
21/04:30am 28.0 NW 14 18 1007.9 - 2.8 - - - - - - -
21/04:00am 28.0 NW 14 17 1007.6 - 2.8 - - - - - - -
21/03:30am 27.9 NW 14 17 1007.7 - 2.8 - - - - - - -
21/03:00am 28.0 NW 14 16 1007.8 - 2.8 - - - - - - -
21/02:30am 27.9 NW 13 17 1008.0 - 2.8 - - - - - - -
21/02:00am 28.0 NW 13 18 1008.2 - 2.8 - - - - - - -
21/01:30am 28.1 NW 14 17 1008.3 - 2.8 - - - - - - -
21/01:00am 28.1 NW 15 18 1008.6 - 2.8 - - - - - - -
21/12:30am 28.2 NW 12 16 1008.9 - 2.8 - - - - - - -
21/12:00am 28.2 NW 12 15 1009.1 - 2.8 - - - - - - -
 
Date/Time
CST
Temp
°C
Wind Pressure Rain since
9am
mm
Weather Cloud Vis
km
Sea
Height
m
Swell
Dir  Spd
kts
Gust
kts
hPa Trend Height
m
Period
s
Dir
20/11:30pm 28.1 NW 11 15 1009.5 - 2.8 - - - - - - -
20/11:00pm 28.1 WNW 13 16 1009.6 - 2.8 - - - - - - -
20/10:30pm 27.8 NW 12 15 1009.4 - 2.8 - - - - - - -
20/10:00pm 27.9 NW 13 16 1009.3 - 2.8 - - - - - - -
20/09:30pm 27.8 NW 12 14 1009.2 - 2.8 - - - - - - -
20/09:00pm 27.7 NW 11 15 1009.1 - 2.8 - - - - - - -
20/08:30pm 27.6 NW 13 16 1008.7 - 2.8 - - - - - - -
20/08:00pm 27.4 NW 13 15 1008.3 - 2.8 - - - - - - -
20/07:30pm 27.3 NNW 11 14 1008.5 - 2.8 - - - - - - -
20/07:00pm 27.4 NNW 11 13 1008.5 - 2.8 - - - - - - -
20/06:30pm 27.3 NNW 9 12 1008.6 - 2.8 - - - - - - -
20/06:00pm 27.3 NNW 11 13 1008.4 - 2.8 - - - - - - -
20/05:30pm 27.4 NNW 10 12 1007.7 - 2.8 - - - - - - -
20/05:00pm 27.9 NNW 10 13 1007.3 - 2.8 - - - - - - -
20/04:30pm 28.2 NNW 8 11 1006.8 - 2.8 - - - - - - -
20/04:00pm 28.1 N 7 9 1007.0 - 2.8 - - - - - - -
20/03:30pm 27.5 N 6 8 1007.4 - 2.8 - - - - - - -
20/03:00pm 27.1 N 7 9 1007.8 - 2.8 - - - - - - -
20/02:30pm 27.8 NNW 8 11 1008.4 - 2.8 - - - - - - -
20/02:00pm 28.1 N 7 10 1008.4 - 2.8 - - - - - - -

Other Formats:

Comma delimited format used in spreadsheet applications
http://www.bom.gov.au/fwo/IDD60701/IDD60701.94147.axf

JavaScript Object Notation format (JSON) in row-major order
http://www.bom.gov.au/fwo/IDD60701/IDD60701.94147.json